メインページ
METAR-TAF:

METAR-TAF

空港 :

ジブチ国際空港

ジブチ, ジブチ

緯度: 11-33N, 経度: 043-10E, 海抜: 49m

現時点の気象観測

当レポートは12時間37分前の17:00(UTC)に作成
の風 9kt
気温 30°C
湿度 84%
気圧 1013 hPa
視程10km以上
高度2300ftの雲はほとんどない

METAR: HDAM 211700Z 10009KT 9999 FEW023 30/27 Q1013

時間: 08:37 (05:37 UTC)

予報

当レポートは37分前の05:00(UTC)に作成
予報は22日の 06時(UTC)から 23日の 06時(UTC)まで有効
の風 10kt
視程10km以上
高度2300ftの雲はほとんどない
高度2000ftの雲は散在している
22日の 15時(UTC)から 22日の 18時(UTC)まで徐々に
変向風 3kt
高度2000ftの雲はほとんどない
23日の 00時(UTC)から 23日の 06時(UTC)まで徐々に
の風 kt
高度2000ftの雲は散在している
高度13000ftの雲は散在している

TAF: HDAM 220500Z 2206/2306 10010KT 9999 FEW023 SCT020 BECMG 2215/2218 VRB03KT FEW020 BECMG 2300/2306 00000KT SCT020 SCT130

4,000以上の空港の気象観測と天気予報(METAR報とTAF報)

利用可能な観測所は地図上に黄色い丸と赤い丸で示す。

丸の上にカーソルを重ねると観測所名を参照できる。

次にクリックすると気象観測と天気予報を参照できる。

マップの切り替え:黒色「×」印の緑ボタンをクリックして拡大、「-」印の緑ボタンをクリックして縮小、緑色の三角印をクリックして隣りの地図に切り替え


METAR-TAF: